sensor_id;sensor_type;location;lat;lon;timestamp;pressure;altitude;pressure_sealevel;temperature;humidity
64064;BME280;50314;50.618;10.642;2022-08-19T00:01:47;96237.34;;;24.48;27.31
64064;BME280;50314;50.618;10.642;2022-08-19T00:04:14;96241.84;;;24.48;27.60
64064;BME280;50314;50.618;10.642;2022-08-19T00:06:41;96236.47;;;24.48;27.68
64064;BME280;50314;50.618;10.642;2022-08-19T00:09:10;96237.50;;;24.47;27.36
64064;BME280;50314;50.618;10.642;2022-08-19T00:11:37;96233.19;;;24.46;27.72
64064;BME280;50314;50.618;10.642;2022-08-19T00:14:04;96233.19;;;24.46;27.35
64064;BME280;50314;50.618;10.642;2022-08-19T00:16:29;96222.59;;;24.44;27.26
64064;BME280;50314;50.618;10.642;2022-08-19T00:18:55;96215.38;;;24.45;27.80
64064;BME280;50314;50.618;10.642;2022-08-19T00:21:21;96219.09;;;24.44;27.47
64064;BME280;50314;50.618;10.642;2022-08-19T00:23:47;96216.41;;;24.44;27.73
64064;BME280;50314;50.618;10.642;2022-08-19T00:26:12;96207.50;;;24.43;27.51
64064;BME280;50314;50.618;10.642;2022-08-19T00:28:38;96206.69;;;24.43;27.42
64064;BME280;50314;50.618;10.642;2022-08-19T00:31:04;96208.56;;;24.42;27.31
64064;BME280;50314;50.618;10.642;2022-08-19T00:33:30;96208.56;;;24.42;27.13
64064;BME280;50314;50.618;10.642;2022-08-19T00:36:03;96210.63;;;24.40;27.33
64064;BME280;50314;50.618;10.642;2022-08-19T00:38:30;96212.50;;;24.39;27.48
64064;BME280;50314;50.618;10.642;2022-08-19T00:40:56;96209.19;;;24.37;27.69
64064;BME280;50314;50.618;10.642;2022-08-19T00:43:23;96203.78;;;24.37;27.51
64064;BME280;50314;50.618;10.642;2022-08-19T00:45:49;96207.34;;;24.38;27.59
64064;BME280;50314;50.618;10.642;2022-08-19T00:48:16;96202.16;;;24.36;27.48
64064;BME280;50314;50.618;10.642;2022-08-19T00:50:42;96197.59;;;24.37;27.50
64064;BME280;50314;50.618;10.642;2022-08-19T00:53:10;96189.31;;;24.38;27.50
64064;BME280;50314;50.618;10.642;2022-08-19T00:55:37;96187.66;;;24.37;27.82
64064;BME280;50314;50.618;10.642;2022-08-19T00:58:08;96188.06;;;24.34;27.37
64064;BME280;50314;50.618;10.642;2022-08-19T01:00:35;96178.97;;;24.35;27.55
64064;BME280;50314;50.618;10.642;2022-08-19T01:03:05;96187.06;;;24.35;27.31
64064;BME280;50314;50.618;10.642;2022-08-19T01:05:31;96178.97;;;24.35;27.28
64064;BME280;50314;50.618;10.642;2022-08-19T01:07:59;96180.00;;;24.34;27.43
64064;BME280;50314;50.618;10.642;2022-08-19T01:10:27;96176.47;;;24.34;27.25
64064;BME280;50314;50.618;10.642;2022-08-19T01:12:55;96181.06;;;24.33;27.43
64064;BME280;50314;50.618;10.642;2022-08-19T01:15:25;96165.94;;;24.32;27.73
64064;BME280;50314;50.618;10.642;2022-08-19T01:17:53;96181.06;;;24.33;27.26
64064;BME280;50314;50.618;10.642;2022-08-19T01:20:21;96175.91;;;24.32;27.89
64064;BME280;50314;50.618;10.642;2022-08-19T01:22:51;96175.91;;;24.32;27.23
64064;BME280;50314;50.618;10.642;2022-08-19T01:25:20;96180.44;;;24.31;27.66
64064;BME280;50314;50.618;10.642;2022-08-19T01:27:49;96190.38;;;24.31;27.96
64064;BME280;50314;50.618;10.642;2022-08-19T01:30:23;96178.19;;;24.28;27.27
64064;BME280;50314;50.618;10.642;2022-08-19T01:32:50;96192.47;;;24.29;27.54
64064;BME280;50314;50.618;10.642;2022-08-19T01:35:16;96184.38;;;24.29;27.63
64064;BME280;50314;50.618;10.642;2022-08-19T01:37:43;96184.19;;;24.24;27.59
64064;BME280;50314;50.618;10.642;2022-08-19T01:40:09;96177.38;;;24.28;27.71
64064;BME280;50314;50.618;10.642;2022-08-19T01:42:35;96180.88;;;24.28;27.54
64064;BME280;50314;50.618;10.642;2022-08-19T01:45:00;96175.50;;;24.28;27.72
64064;BME280;50314;50.618;10.642;2022-08-19T01:47:26;96169.28;;;24.28;27.67
64064;BME280;50314;50.618;10.642;2022-08-19T01:49:51;96173.81;;;24.27;27.64
64064;BME280;50314;50.618;10.642;2022-08-19T01:52:17;96164.09;;;24.26;27.75
64064;BME280;50314;50.618;10.642;2022-08-19T01:54:42;96159.16;;;24.23;27.58
64064;BME280;50314;50.618;10.642;2022-08-19T01:57:10;96162.06;;;24.22;28.03
64064;BME280;50314;50.618;10.642;2022-08-19T01:59:37;96162.88;;;24.22;28.04
64064;BME280;50314;50.618;10.642;2022-08-19T02:02:05;96153.19;;;24.21;28.14
64064;BME280;50314;50.618;10.642;2022-08-19T02:04:34;96146.94;;;24.21;27.82
64064;BME280;50314;50.618;10.642;2022-08-19T02:07:00;96156.88;;;24.20;27.95
64064;BME280;50314;50.618;10.642;2022-08-19T02:09:25;96146.34;;;24.19;27.71
64064;BME280;50314;50.618;10.642;2022-08-19T02:11:51;96148.00;;;24.20;28.12
64064;BME280;50314;50.618;10.642;2022-08-19T02:14:16;96157.94;;;24.19;28.21
64064;BME280;50314;50.618;10.642;2022-08-19T02:16:41;96158.97;;;24.18;28.05
64064;BME280;50314;50.618;10.642;2022-08-19T02:19:07;96167.25;;;24.17;27.97
64064;BME280;50314;50.618;10.642;2022-08-19T02:21:33;96169.94;;;24.17;28.00
64064;BME280;50314;50.618;10.642;2022-08-19T02:23:58;96172.63;;;24.17;27.95
64064;BME280;50314;50.618;10.642;2022-08-19T02:26:24;96168.28;;;24.15;27.81
64064;BME280;50314;50.618;10.642;2022-08-19T02:28:52;96171.19;;;24.14;28.14
64064;BME280;50314;50.618;10.642;2022-08-19T02:31:20;96166.03;;;24.12;28.32
64064;BME280;50314;50.618;10.642;2022-08-19T02:33:47;96166.84;;;24.13;28.12
64064;BME280;50314;50.618;10.642;2022-08-19T02:36:14;96166.84;;;24.13;28.13
64064;BME280;50314;50.618;10.642;2022-08-19T02:38:40;96179.47;;;24.12;27.99
64064;BME280;50314;50.618;10.642;2022-08-19T02:41:11;96181.34;;;24.12;27.83
64064;BME280;50314;50.618;10.642;2022-08-19T02:43:37;96184.84;;;24.12;28.11
64064;BME280;50314;50.618;10.642;2022-08-19T02:46:32;96178.69;;;24.05;28.29
64064;BME280;50314;50.618;10.642;2022-08-19T02:49:02;96172.88;;;24.08;28.01
64064;BME280;50314;50.618;10.642;2022-08-19T02:51:30;96177.22;;;24.09;28.27
64064;BME280;50314;50.618;10.642;2022-08-19T02:53:57;96183.41;;;24.10;28.06
64064;BME280;50314;50.618;10.642;2022-08-19T02:56:24;96184.47;;;24.09;28.20
64064;BME280;50314;50.618;10.642;2022-08-19T02:58:50;96187.34;;;24.07;28.15
64064;BME280;50314;50.618;10.642;2022-08-19T03:01:27;96189.03;;;24.02;28.35
64064;BME280;50314;50.618;10.642;2022-08-19T03:03:53;96180.31;;;24.06;28.30
64064;BME280;50314;50.618;10.642;2022-08-19T03:06:19;96189.44;;;24.05;28.44
64064;BME280;50314;50.618;10.642;2022-08-19T03:08:47;96200.19;;;24.05;28.42
64064;BME280;50314;50.618;10.642;2022-08-19T03:11:18;96197.50;;;24.05;27.94
64064;BME280;50314;50.618;10.642;2022-08-19T03:13:44;96203.06;;;24.04;28.27
64064;BME280;50314;50.618;10.642;2022-08-19T03:16:11;96208.69;;;24.02;28.44
64064;BME280;50314;50.618;10.642;2022-08-19T03:18:37;96211.16;;;24.04;28.29
64064;BME280;50314;50.618;10.642;2022-08-19T03:21:03;96222.94;;;24.03;27.94
64064;BME280;50314;50.618;10.642;2022-08-19T03:23:29;96224.59;;;24.04;28.32
64064;BME280;50314;50.618;10.642;2022-08-19T03:25:54;96223.78;;;24.03;28.30
64064;BME280;50314;50.618;10.642;2022-08-19T03:28:20;96230.38;;;24.01;27.86
64064;BME280;50314;50.618;10.642;2022-08-19T03:31:05;96230.41;;;23.94;28.22
64064;BME280;50314;50.618;10.642;2022-08-19T03:33:32;96228.97;;;23.98;28.34
64064;BME280;50314;50.618;10.642;2022-08-19T03:36:04;96222.13;;;23.96;28.63
64064;BME280;50314;50.618;10.642;2022-08-19T03:38:31;96220.91;;;23.98;28.70
64064;BME280;50314;50.618;10.642;2022-08-19T03:40:57;96221.69;;;23.92;28.52
64064;BME280;50314;50.618;10.642;2022-08-19T03:43:22;96228.72;;;23.93;28.16
64064;BME280;50314;50.618;10.642;2022-08-19T03:45:48;96221.72;;;23.99;28.49
64064;BME280;50314;50.618;10.642;2022-08-19T03:48:14;96236.22;;;23.98;28.49
64064;BME280;50314;50.618;10.642;2022-08-19T03:50:41;96241.59;;;23.98;28.29
64064;BME280;50314;50.618;10.642;2022-08-19T03:53:07;96242.41;;;23.98;28.04
64064;BME280;50314;50.618;10.642;2022-08-19T03:55:38;96251.50;;;23.97;28.33
64064;BME280;50314;50.618;10.642;2022-08-19T03:58:04;96245.31;;;23.97;28.11
64064;BME280;50314;50.618;10.642;2022-08-19T04:00:29;96243.66;;;23.96;28.23
64064;BME280;50314;50.618;10.642;2022-08-19T04:02:54;96241.97;;;23.95;28.49
64064;BME280;50314;50.618;10.642;2022-08-19T04:05:20;96238.28;;;23.96;28.25
64064;BME280;50314;50.618;10.642;2022-08-19T04:07:45;96232.91;;;23.96;28.26
64064;BME280;50314;50.618;10.642;2022-08-19T04:10:11;96239.09;;;23.96;28.08
64064;BME280;50314;50.618;10.642;2022-08-19T04:12:36;96230.22;;;23.96;27.89
64064;BME280;50314;50.618;10.642;2022-08-19T04:15:02;96245.31;;;23.97;28.38
64064;BME280;50314;50.618;10.642;2022-08-19T04:17:28;96243.66;;;23.96;28.42
64064;BME280;50314;50.618;10.642;2022-08-19T04:19:53;96240.97;;;23.96;28.37
64064;BME280;50314;50.618;10.642;2022-08-19T04:22:19;96250.69;;;23.97;27.97
64064;BME280;50314;50.618;10.642;2022-08-19T04:24:44;96249.84;;;23.96;28.26
64064;BME280;50314;50.618;10.642;2022-08-19T04:27:09;96251.91;;;23.94;28.56
64064;BME280;50314;50.618;10.642;2022-08-19T04:29:35;96243.00;;;23.93;28.17
64064;BME280;50314;50.618;10.642;2022-08-19T04:32:01;96239.47;;;23.93;28.36
64064;BME280;50314;50.618;10.642;2022-08-19T04:34:28;96238.47;;;23.94;28.72
64064;BME280;50314;50.618;10.642;2022-08-19T04:36:56;96241.97;;;23.95;28.69
64064;BME280;50314;50.618;10.642;2022-08-19T04:39:28;96243.66;;;23.96;28.64
64064;BME280;50314;50.618;10.642;2022-08-19T04:42:13;96246.53;;;23.94;28.36
64064;BME280;50314;50.618;10.642;2022-08-19T04:44:58;96251.06;;;23.93;28.24
64064;BME280;50314;50.618;10.642;2022-08-19T04:47:23;96241.16;;;23.94;28.22
64064;BME280;50314;50.618;10.642;2022-08-19T04:49:49;96240.31;;;23.93;27.98
64064;BME280;50314;50.618;10.642;2022-08-19T04:52:14;96232.25;;;23.93;28.57
64064;BME280;50314;50.618;10.642;2022-08-19T04:54:40;96235.78;;;23.94;27.98
64064;BME280;50314;50.618;10.642;2022-08-19T04:57:07;96236.59;;;23.95;28.38
64064;BME280;50314;50.618;10.642;2022-08-19T04:59:35;96239.09;;;23.96;28.39
64064;BME280;50314;50.618;10.642;2022-08-19T05:02:01;96241.75;;;23.89;28.21
64064;BME280;50314;50.618;10.642;2022-08-19T05:04:26;96245.28;;;23.90;28.20
64064;BME280;50314;50.618;10.642;2022-08-19T05:06:53;96242.81;;;23.95;27.92
64064;BME280;50314;50.618;10.642;2022-08-19T05:09:19;96245.50;;;23.95;27.91
64064;BME280;50314;50.618;10.642;2022-08-19T05:11:46;96247.34;;;23.95;28.14
64064;BME280;50314;50.618;10.642;2022-08-19T05:14:12;96246.34;;;23.96;28.53
64064;BME280;50314;50.618;10.642;2022-08-19T05:16:38;96252.53;;;23.96;27.82
64064;BME280;50314;50.618;10.642;2022-08-19T05:19:04;96255.22;;;23.96;28.02
64064;BME280;50314;50.618;10.642;2022-08-19T05:21:48;96260.63;;;23.96;28.09
64064;BME280;50314;50.618;10.642;2022-08-19T05:24:32;96255.44;;;23.95;28.28
64064;BME280;50314;50.618;10.642;2022-08-19T05:27:01;96257.09;;;23.96;28.34
64064;BME280;50314;50.618;10.642;2022-08-19T05:29:28;96248.19;;;23.95;27.96
64064;BME280;50314;50.618;10.642;2022-08-19T05:31:54;96253.38;;;23.97;27.97
64064;BME280;50314;50.618;10.642;2022-08-19T05:34:21;96257.72;;;23.98;28.31
64064;BME280;50314;50.618;10.642;2022-08-19T05:36:49;96263.13;;;23.98;28.17
64064;BME280;50314;50.618;10.642;2022-08-19T05:39:19;96256.44;;;23.93;28.18
64064;BME280;50314;50.618;10.642;2022-08-19T05:41:50;96253.97;;;23.92;28.19
64064;BME280;50314;50.618;10.642;2022-08-19T05:44:18;96252.94;;;23.93;28.56
64064;BME280;50314;50.618;10.642;2022-08-19T05:46:46;96264.50;;;23.93;28.75
64064;BME280;50314;50.618;10.642;2022-08-19T05:49:18;96270.94;;;23.92;28.55
64064;BME280;50314;50.618;10.642;2022-08-19T05:51:43;96277.13;;;23.93;28.47
64064;BME280;50314;50.618;10.642;2022-08-19T05:54:09;96269.88;;;23.93;28.31
64064;BME280;50314;50.618;10.642;2022-08-19T05:56:37;96276.94;;;23.95;28.71
64064;BME280;50314;50.618;10.642;2022-08-19T05:59:04;96285.00;;;23.95;28.56
64064;BME280;50314;50.618;10.642;2022-08-19T06:01:35;96290.38;;;23.95;28.43
64064;BME280;50314;50.618;10.642;2022-08-19T06:04:01;96303.44;;;23.91;28.36
64064;BME280;50314;50.618;10.642;2022-08-19T06:06:26;96307.75;;;23.92;28.56
64064;BME280;50314;50.618;10.642;2022-08-19T06:08:52;96311.53;;;23.98;28.13
64064;BME280;50314;50.618;10.642;2022-08-19T06:11:38;96315.22;;;23.97;28.50
64064;BME280;50314;50.618;10.642;2022-08-19T06:14:10;96317.72;;;23.98;28.19
64064;BME280;50314;50.618;10.642;2022-08-19T06:16:37;96321.25;;;23.99;28.44
64064;BME280;50314;50.618;10.642;2022-08-19T06:19:06;96303.88;;;24.01;28.37
64064;BME280;50314;50.618;10.642;2022-08-19T06:21:33;96312.75;;;24.02;28.32
64064;BME280;50314;50.618;10.642;2022-08-19T06:23:59;96317.72;;;23.98;28.64
64064;BME280;50314;50.618;10.642;2022-08-19T06:26:25;96330.13;;;23.99;28.42
64064;BME280;50314;50.618;10.642;2022-08-19T06:28:52;96338.19;;;24.06;28.65
64064;BME280;50314;50.618;10.642;2022-08-19T06:31:20;96335.50;;;24.06;28.64
64064;BME280;50314;50.618;10.642;2022-08-19T06:33:47;96338.81;;;24.08;28.64
64064;BME280;50314;50.618;10.642;2022-08-19T06:36:46;96340.47;;;24.02;28.30
64064;BME280;50314;50.618;10.642;2022-08-19T06:39:09;96344.22;;;24.08;28.37
64064;BME280;50314;50.618;10.642;2022-08-19T06:41:40;96343.56;;;24.06;28.53
64064;BME280;50314;50.618;10.642;2022-08-19T06:44:06;96350.41;;;24.08;28.62
64064;BME280;50314;50.618;10.642;2022-08-19T06:46:33;96349.59;;;24.08;28.72
64064;BME280;50314;50.618;10.642;2022-08-19T06:48:59;96352.28;;;24.08;28.60
64064;BME280;50314;50.618;10.642;2022-08-19T06:51:24;96348.72;;;24.07;28.73
64064;BME280;50314;50.618;10.642;2022-08-19T06:53:52;96351.41;;;24.07;28.58
64064;BME280;50314;50.618;10.642;2022-08-19T06:56:22;96356.63;;;24.09;29.23
64064;BME280;50314;50.618;10.642;2022-08-19T06:58:50;96364.06;;;24.07;29.07
64064;BME280;50314;50.618;10.642;2022-08-19T07:01:18;96359.06;;;24.04;29.08
64064;BME280;50314;50.618;10.642;2022-08-19T07:03:44;96348.31;;;24.04;29.05
64064;BME280;50314;50.618;10.642;2022-08-19T07:06:12;96351.88;;;23.98;29.31
64064;BME280;50314;50.618;10.642;2022-08-19T07:08:40;96354.56;;;24.04;28.97
64064;BME280;50314;50.618;10.642;2022-08-19T07:11:11;96359.06;;;24.04;29.62
64064;BME280;50314;50.618;10.642;2022-08-19T07:13:39;96357.25;;;24.04;29.32
64064;BME280;50314;50.618;10.642;2022-08-19T07:16:08;96361.78;;;24.04;29.70
64064;BME280;50314;50.618;10.642;2022-08-19T07:18:34;96347.50;;;24.03;29.36
64064;BME280;50314;50.618;10.642;2022-08-19T07:21:09;96346.91;;;24.01;29.69
64064;BME280;50314;50.618;10.642;2022-08-19T07:23:35;96336.56;;;24.05;29.44
64064;BME280;50314;50.618;10.642;2022-08-19T07:26:10;96342.75;;;23.99;29.68
64064;BME280;50314;50.618;10.642;2022-08-19T07:28:36;96345.84;;;24.02;29.34
64064;BME280;50314;50.618;10.642;2022-08-19T07:31:13;96349.59;;;24.01;29.72
64064;BME280;50314;50.618;10.642;2022-08-19T07:33:39;96354.75;;;24.03;29.61
64064;BME280;50314;50.618;10.642;2022-08-19T07:36:06;96354.75;;;24.03;29.69
64064;BME280;50314;50.618;10.642;2022-08-19T07:38:33;96359.50;;;24.01;29.77
64064;BME280;50314;50.618;10.642;2022-08-19T07:40:59;96359.50;;;24.01;29.75
64064;BME280;50314;50.618;10.642;2022-08-19T07:43:26;96358.66;;;24.00;29.66
64064;BME280;50314;50.618;10.642;2022-08-19T07:45:53;96357.44;;;24.03;30.06
64064;BME280;50314;50.618;10.642;2022-08-19T07:48:22;96363.44;;;24.05;29.87
64064;BME280;50314;50.618;10.642;2022-08-19T07:50:53;96362.19;;;24.07;29.92
64064;BME280;50314;50.618;10.642;2022-08-19T07:53:23;96376.25;;;24.09;29.91
64064;BME280;50314;50.618;10.642;2022-08-19T07:55:49;96377.72;;;24.12;30.02
64064;BME280;50314;50.618;10.642;2022-08-19T07:58:18;96381.22;;;24.12;30.22
64064;BME280;50314;50.618;10.642;2022-08-19T08:00:45;96388.06;;;24.15;29.78
64064;BME280;50314;50.618;10.642;2022-08-19T08:03:11;96390.53;;;24.17;29.83
64064;BME280;50314;50.618;10.642;2022-08-19T08:05:37;96382.28;;;24.18;29.48
64064;BME280;50314;50.618;10.642;2022-08-19T08:08:21;96382.06;;;24.20;29.45
64064;BME280;50314;50.618;10.642;2022-08-19T08:11:07;96386.81;;;24.18;29.79
64064;BME280;50314;50.618;10.642;2022-08-19T08:13:33;96389.94;;;24.28;29.36
64064;BME280;50314;50.618;10.642;2022-08-19T08:16:01;96387.84;;;24.30;29.21
64064;BME280;50314;50.618;10.642;2022-08-19T08:18:27;96386.59;;;24.32;29.41
64064;BME280;50314;50.618;10.642;2022-08-19T08:20:53;96388.06;;;24.35;29.39
64064;BME280;50314;50.618;10.642;2022-08-19T08:23:19;96381.41;;;24.37;29.15
64064;BME280;50314;50.618;10.642;2022-08-19T08:25:56;96383.09;;;24.38;29.58
64064;BME280;50314;50.618;10.642;2022-08-19T08:28:22;96385.97;;;24.44;29.02
64064;BME280;50314;50.618;10.642;2022-08-19T08:30:49;96385.53;;;24.47;29.59
64064;BME280;50314;50.618;10.642;2022-08-19T08:33:20;96387.03;;;24.49;29.30
64064;BME280;50314;50.618;10.642;2022-08-19T08:35:46;96383.69;;;24.54;29.12
64064;BME280;50314;50.618;10.642;2022-08-19T08:38:13;96393.00;;;24.58;28.93
64064;BME280;50314;50.618;10.642;2022-08-19T08:40:48;96396.75;;;24.57;29.03
64064;BME280;50314;50.618;10.642;2022-08-19T08:43:20;96389.91;;;24.61;29.08
64064;BME280;50314;50.618;10.642;2022-08-19T08:46:05;96397.38;;;24.59;29.21
64064;BME280;50314;50.618;10.642;2022-08-19T08:48:43;96394.88;;;24.64;29.17
64064;BME280;50314;50.618;10.642;2022-08-19T08:51:15;96399.22;;;24.65;29.16
64064;BME280;50314;50.618;10.642;2022-08-19T08:53:44;96406.25;;;24.66;29.13
64064;BME280;50314;50.618;10.642;2022-08-19T08:56:12;96408.72;;;24.68;28.92
64064;BME280;50314;50.618;10.642;2022-08-19T08:58:58;96407.91;;;24.60;29.19
64064;BME280;50314;50.618;10.642;2022-08-19T09:01:25;96410.00;;;24.65;29.00
64064;BME280;50314;50.618;10.642;2022-08-19T09:03:50;96408.97;;;24.66;29.31
64064;BME280;50314;50.618;10.642;2022-08-19T09:11:56;96396.72;;;24.70;29.25
64064;BME280;50314;50.618;10.642;2022-08-19T09:16:59;96390.47;;;24.90;29.16
64064;BME280;50314;50.618;10.642;2022-08-19T09:19:24;96386.50;;;24.99;28.57
64064;BME280;50314;50.618;10.642;2022-08-19T09:21:50;96383.75;;;25.12;28.68
64064;BME280;50314;50.618;10.642;2022-08-19T09:24:16;96388.31;;;25.18;28.52
64064;BME280;50314;50.618;10.642;2022-08-19T09:26:41;96383.69;;;25.25;28.32
64064;BME280;50314;50.618;10.642;2022-08-19T09:29:09;96381.22;;;25.30;28.05
64064;BME280;50314;50.618;10.642;2022-08-19T09:31:35;96381.78;;;25.39;27.76
64064;BME280;50314;50.618;10.642;2022-08-19T09:34:00;96381.09;;;25.50;27.63
64064;BME280;50314;50.618;10.642;2022-08-19T09:36:30;96381.09;;;25.57;27.62
64064;BME280;50314;50.618;10.642;2022-08-19T09:39:02;96381.09;;;25.57;27.66
64064;BME280;50314;50.618;10.642;2022-08-19T09:41:28;96387.06;;;25.59;27.65
64064;BME280;50314;50.618;10.642;2022-08-19T09:43:55;96390.41;;;25.61;27.77
64064;BME280;50314;50.618;10.642;2022-08-19T09:46:22;96395.34;;;25.64;27.90
64064;BME280;50314;50.618;10.642;2022-08-19T09:48:49;96390.59;;;25.66;27.55
64064;BME280;50314;50.618;10.642;2022-08-19T09:51:19;96386.41;;;25.70;27.60
64064;BME280;50314;50.618;10.642;2022-08-19T09:53:46;96383.25;;;25.80;27.56
64064;BME280;50314;50.618;10.642;2022-08-19T09:56:12;96379.59;;;25.93;27.47
64064;BME280;50314;50.618;10.642;2022-08-19T09:58:38;96376.25;;;26.04;27.24
64064;BME280;50314;50.618;10.642;2022-08-19T10:01:05;96382.41;;;26.11;27.33
64064;BME280;50314;50.618;10.642;2022-08-19T10:03:32;96384.38;;;26.22;27.10
64064;BME280;50314;50.618;10.642;2022-08-19T10:05:59;96374.97;;;26.32;27.15
64064;BME280;50314;50.618;10.642;2022-08-19T10:08:28;96382.50;;;26.48;27.03
64064;BME280;50314;50.618;10.642;2022-08-19T10:10:55;96375.78;;;26.76;26.50
64064;BME280;50314;50.618;10.642;2022-08-19T10:13:24;96376.56;;;27.01;26.59
64064;BME280;50314;50.618;10.642;2022-08-19T10:15:53;96375.22;;;27.40;25.98
64064;BME280;50314;50.618;10.642;2022-08-19T10:18:22;96370.09;;;27.81;25.30
64064;BME280;50314;50.618;10.642;2022-08-19T10:20:48;96378.63;;;27.96;25.10
64064;BME280;50314;50.618;10.642;2022-08-19T10:23:15;96379.84;;;28.12;25.36
64064;BME280;50314;50.618;10.642;2022-08-19T10:25:41;96380.34;;;28.21;24.86
64064;BME280;50314;50.618;10.642;2022-08-19T10:28:08;96382.78;;;28.22;24.46
64064;BME280;50314;50.618;10.642;2022-08-19T10:30:35;96384.94;;;28.20;24.55
64064;BME280;50314;50.618;10.642;2022-08-19T10:33:01;96383.50;;;28.18;24.28
64064;BME280;50314;50.618;10.642;2022-08-19T10:35:26;96373.75;;;28.17;23.85
64064;BME280;50314;50.618;10.642;2022-08-19T10:37:53;96369.50;;;28.21;23.77
64064;BME280;50314;50.618;10.642;2022-08-19T10:40:18;96370.34;;;28.33;23.99
64064;BME280;50314;50.618;10.642;2022-08-19T10:42:44;96366.81;;;28.56;23.61
64064;BME280;50314;50.618;10.642;2022-08-19T10:45:10;96381.19;;;28.68;23.30
64064;BME280;50314;50.618;10.642;2022-08-19T10:47:36;96377.88;;;28.78;23.22
64064;BME280;50314;50.618;10.642;2022-08-19T10:50:03;96375.88;;;28.85;23.01
64064;BME280;50314;50.618;10.642;2022-08-19T10:52:49;96363.72;;;28.88;22.72
64064;BME280;50314;50.618;10.642;2022-08-19T10:55:14;96367.47;;;28.87;22.53
64064;BME280;50314;50.618;10.642;2022-08-19T10:57:58;96370.78;;;28.89;22.76
64064;BME280;50314;50.618;10.642;2022-08-19T11:00:24;96377.84;;;28.90;22.42
64064;BME280;50314;50.618;10.642;2022-08-19T11:02:50;96374.94;;;28.91;22.40
64064;BME280;50314;50.618;10.642;2022-08-19T11:05:16;96370.56;;;28.90;22.21
64064;BME280;50314;50.618;10.642;2022-08-19T11:07:43;96368.66;;;29.02;21.75
64064;BME280;50314;50.618;10.642;2022-08-19T11:10:11;96358.09;;;29.30;21.36
64064;BME280;50314;50.618;10.642;2022-08-19T11:12:37;96368.66;;;29.55;21.18
64064;BME280;50314;50.618;10.642;2022-08-19T11:15:07;96367.66;;;29.89;20.90
64064;BME280;50314;50.618;10.642;2022-08-19T11:17:34;96371.53;;;30.10;20.78
64064;BME280;50314;50.618;10.642;2022-08-19T11:20:01;96363.31;;;30.22;20.14
64064;BME280;50314;50.618;10.642;2022-08-19T11:22:29;96378.97;;;30.32;19.98
64064;BME280;50314;50.618;10.642;2022-08-19T11:24:55;96374.03;;;30.29;19.99
64064;BME280;50314;50.618;10.642;2022-08-19T11:27:21;96368.50;;;30.24;19.76
64064;BME280;50314;50.618;10.642;2022-08-19T11:29:46;96377.63;;;30.17;19.67
64064;BME280;50314;50.618;10.642;2022-08-19T11:32:12;96383.47;;;30.09;19.59
64064;BME280;50314;50.618;10.642;2022-08-19T11:34:38;96386.34;;;30.03;19.39
64064;BME280;50314;50.618;10.642;2022-08-19T11:37:04;96387.22;;;29.91;19.44
64064;BME280;50314;50.618;10.642;2022-08-19T11:39:31;96396.03;;;29.82;19.30
64064;BME280;50314;50.618;10.642;2022-08-19T11:41:59;96394.97;;;29.71;19.19
64064;BME280;50314;50.618;10.642;2022-08-19T11:44:25;96396.44;;;29.62;19.28
64064;BME280;50314;50.618;10.642;2022-08-19T11:46:51;96390.09;;;29.56;19.37
64064;BME280;50314;50.618;10.642;2022-08-19T11:49:18;96388.69;;;29.54;19.40
64064;BME280;50314;50.618;10.642;2022-08-19T11:51:45;96381.63;;;29.53;19.37
64064;BME280;50314;50.618;10.642;2022-08-19T11:54:13;96385.97;;;29.54;19.13
64064;BME280;50314;50.618;10.642;2022-08-19T11:56:40;96378.66;;;29.54;19.59
64064;BME280;50314;50.618;10.642;2022-08-19T11:59:05;96372.88;;;29.50;19.55
64064;BME280;50314;50.618;10.642;2022-08-19T12:01:31;96378.44;;;29.56;19.92
64064;BME280;50314;50.618;10.642;2022-08-19T12:03:57;96370.50;;;29.54;20.04
64064;BME280;50314;50.618;10.642;2022-08-19T12:06:25;96369.81;;;29.59;19.82
64064;BME280;50314;50.618;10.642;2022-08-19T12:08:56;96368.84;;;29.65;19.97
64064;BME280;50314;50.618;10.642;2022-08-19T12:11:22;96374.59;;;29.68;19.77
64064;BME280;50314;50.618;10.642;2022-08-19T12:13:48;96362.66;;;29.69;19.79
64064;BME280;50314;50.618;10.642;2022-08-19T12:16:18;96362.06;;;29.67;19.46
64064;BME280;50314;50.618;10.642;2022-08-19T12:18:44;96361.50;;;29.65;19.40
64064;BME280;50314;50.618;10.642;2022-08-19T12:21:16;96365.28;;;29.64;19.41
64064;BME280;50314;50.618;10.642;2022-08-19T12:23:42;96361.59;;;29.70;19.56
64064;BME280;50314;50.618;10.642;2022-08-19T12:26:09;96357.69;;;29.78;19.67
64064;BME280;50314;50.618;10.642;2022-08-19T12:28:35;96354.25;;;29.83;19.66
64064;BME280;50314;50.618;10.642;2022-08-19T12:31:01;96356.47;;;29.86;19.70
64064;BME280;50314;50.618;10.642;2022-08-19T12:33:26;96352.47;;;29.88;19.62
64064;BME280;50314;50.618;10.642;2022-08-19T12:35:53;96354.09;;;29.89;19.58
64064;BME280;50314;50.618;10.642;2022-08-19T12:38:19;96354.09;;;29.89;19.24
64064;BME280;50314;50.618;10.642;2022-08-19T12:40:46;96341.06;;;29.91;19.27
64064;BME280;50314;50.618;10.642;2022-08-19T12:43:12;96354.16;;;29.94;19.37
64064;BME280;50314;50.618;10.642;2022-08-19T12:45:39;96347.69;;;29.95;18.84
64064;BME280;50314;50.618;10.642;2022-08-19T12:48:04;96339.78;;;29.94;18.87
64064;BME280;50314;50.618;10.642;2022-08-19T12:50:30;96347.91;;;29.94;18.97
64064;BME280;50314;50.618;10.642;2022-08-19T12:52:56;96343.06;;;29.96;18.62
64064;BME280;50314;50.618;10.642;2022-08-19T12:55:22;96355.56;;;29.97;18.64
64064;BME280;50314;50.618;10.642;2022-08-19T12:57:48;96367.25;;;29.97;18.54
64064;BME280;50314;50.618;10.642;2022-08-19T13:00:18;96354.75;;;29.96;18.35
64064;BME280;50314;50.618;10.642;2022-08-19T13:02:47;96357.19;;;29.98;18.66